sensor_id;sensor_type;location;lat;lon;timestamp;temperature;humidity
21772;DHT22;11047;47.904;8.110;2022-10-16T00:00:36;10.70;99.90
21772;DHT22;11047;47.904;8.110;2022-10-16T00:03:03;10.60;99.90
21772;DHT22;11047;47.904;8.110;2022-10-16T00:05:30;10.60;99.90
21772;DHT22;11047;47.904;8.110;2022-10-16T00:07:57;10.60;99.90
21772;DHT22;11047;47.904;8.110;2022-10-16T00:10:24;10.60;99.90
21772;DHT22;11047;47.904;8.110;2022-10-16T00:12:53;10.60;99.90
21772;DHT22;11047;47.904;8.110;2022-10-16T00:15:20;10.60;99.90
21772;DHT22;11047;47.904;8.110;2022-10-16T00:17:46;10.60;99.90
21772;DHT22;11047;47.904;8.110;2022-10-16T00:20:13;10.60;99.90
21772;DHT22;11047;47.904;8.110;2022-10-16T00:22:40;10.60;99.90
21772;DHT22;11047;47.904;8.110;2022-10-16T00:25:07;10.70;99.90
21772;DHT22;11047;47.904;8.110;2022-10-16T00:27:34;10.70;99.90
21772;DHT22;11047;47.904;8.110;2022-10-16T00:30:03;10.70;99.90
21772;DHT22;11047;47.904;8.110;2022-10-16T00:32:30;10.70;99.90
21772;DHT22;11047;47.904;8.110;2022-10-16T00:34:57;10.80;99.90
21772;DHT22;11047;47.904;8.110;2022-10-16T00:37:24;10.80;99.90
21772;DHT22;11047;47.904;8.110;2022-10-16T00:39:51;10.80;99.90
21772;DHT22;11047;47.904;8.110;2022-10-16T00:42:18;10.80;99.90
21772;DHT22;11047;47.904;8.110;2022-10-16T00:44:49;10.80;99.90
21772;DHT22;11047;47.904;8.110;2022-10-16T00:47:22;10.80;99.90
21772;DHT22;11047;47.904;8.110;2022-10-16T00:49:55;10.90;99.90
21772;DHT22;11047;47.904;8.110;2022-10-16T00:52:22;10.80;99.90
21772;DHT22;11047;47.904;8.110;2022-10-16T00:54:50;10.90;99.90
21772;DHT22;11047;47.904;8.110;2022-10-16T00:57:19;10.90;99.90
21772;DHT22;11047;47.904;8.110;2022-10-16T00:59:46;10.90;99.90
21772;DHT22;11047;47.904;8.110;2022-10-16T01:02:15;10.90;99.90
21772;DHT22;11047;47.904;8.110;2022-10-16T01:04:46;10.80;99.90
21772;DHT22;11047;47.904;8.110;2022-10-16T01:07:18;10.80;99.90
21772;DHT22;11047;47.904;8.110;2022-10-16T01:09:54;10.80;99.90
21772;DHT22;11047;47.904;8.110;2022-10-16T01:12:33;10.80;99.90
21772;DHT22;11047;47.904;8.110;2022-10-16T01:15:08;10.80;99.90
21772;DHT22;11047;47.904;8.110;2022-10-16T01:17:41;10.80;99.90
21772;DHT22;11047;47.904;8.110;2022-10-16T01:20:17;10.70;99.90
21772;DHT22;11047;47.904;8.110;2022-10-16T01:23:02;10.70;99.90
21772;DHT22;11047;47.904;8.110;2022-10-16T01:25:39;10.70;99.90
21772;DHT22;11047;47.904;8.110;2022-10-16T01:28:15;10.70;99.90
21772;DHT22;11047;47.904;8.110;2022-10-16T01:30:45;10.70;99.90
21772;DHT22;11047;47.904;8.110;2022-10-16T01:33:18;10.70;99.90
21772;DHT22;11047;47.904;8.110;2022-10-16T01:35:49;10.70;99.90
21772;DHT22;11047;47.904;8.110;2022-10-16T01:38:22;10.60;99.90
21772;DHT22;11047;47.904;8.110;2022-10-16T01:40:56;10.60;99.90
21772;DHT22;11047;47.904;8.110;2022-10-16T01:43:30;10.70;99.90
21772;DHT22;11047;47.904;8.110;2022-10-16T01:45:59;10.60;99.90
21772;DHT22;11047;47.904;8.110;2022-10-16T01:48:27;10.60;99.90
21772;DHT22;11047;47.904;8.110;2022-10-16T01:50:59;10.60;99.90
21772;DHT22;11047;47.904;8.110;2022-10-16T01:53:27;10.50;99.90
21772;DHT22;11047;47.904;8.110;2022-10-16T01:55:55;10.50;99.90
21772;DHT22;11047;47.904;8.110;2022-10-16T01:58:28;10.50;99.90
21772;DHT22;11047;47.904;8.110;2022-10-16T02:00:59;10.50;99.90
21772;DHT22;11047;47.904;8.110;2022-10-16T02:03:26;10.40;99.90
21772;DHT22;11047;47.904;8.110;2022-10-16T02:05:56;10.40;99.90
21772;DHT22;11047;47.904;8.110;2022-10-16T02:08:27;10.40;99.90
21772;DHT22;11047;47.904;8.110;2022-10-16T02:10:54;10.40;99.90
21772;DHT22;11047;47.904;8.110;2022-10-16T02:13:26;10.40;99.90
21772;DHT22;11047;47.904;8.110;2022-10-16T02:15:55;10.40;99.90
21772;DHT22;11047;47.904;8.110;2022-10-16T02:18:22;10.40;99.90
21772;DHT22;11047;47.904;8.110;2022-10-16T02:20:55;10.50;99.90
21772;DHT22;11047;47.904;8.110;2022-10-16T02:23:29;10.50;99.90
21772;DHT22;11047;47.904;8.110;2022-10-16T02:26:03;10.50;99.90
21772;DHT22;11047;47.904;8.110;2022-10-16T02:28:34;10.50;99.90
21772;DHT22;11047;47.904;8.110;2022-10-16T02:31:08;10.50;99.90
21772;DHT22;11047;47.904;8.110;2022-10-16T02:33:37;10.50;99.90
21772;DHT22;11047;47.904;8.110;2022-10-16T02:36:05;10.50;99.90
21772;DHT22;11047;47.904;8.110;2022-10-16T02:38:32;10.50;99.90
21772;DHT22;11047;47.904;8.110;2022-10-16T02:40:59;10.50;99.90
21772;DHT22;11047;47.904;8.110;2022-10-16T02:43:26;10.40;99.90
21772;DHT22;11047;47.904;8.110;2022-10-16T02:45:53;10.50;99.90
21772;DHT22;11047;47.904;8.110;2022-10-16T02:48:21;10.40;99.90
21772;DHT22;11047;47.904;8.110;2022-10-16T02:50:48;10.40;99.90
21772;DHT22;11047;47.904;8.110;2022-10-16T02:53:15;10.50;99.90
21772;DHT22;11047;47.904;8.110;2022-10-16T02:55:42;10.40;99.90
21772;DHT22;11047;47.904;8.110;2022-10-16T02:58:09;10.40;99.90
21772;DHT22;11047;47.904;8.110;2022-10-16T03:00:36;10.40;99.90
21772;DHT22;11047;47.904;8.110;2022-10-16T03:03:03;10.40;99.90
21772;DHT22;11047;47.904;8.110;2022-10-16T03:05:31;10.40;99.90
21772;DHT22;11047;47.904;8.110;2022-10-16T03:07:58;10.40;99.90
21772;DHT22;11047;47.904;8.110;2022-10-16T03:10:26;10.30;99.90
21772;DHT22;11047;47.904;8.110;2022-10-16T03:12:53;10.30;99.90
21772;DHT22;11047;47.904;8.110;2022-10-16T03:15:20;10.30;99.90
21772;DHT22;11047;47.904;8.110;2022-10-16T03:17:46;10.30;99.90
21772;DHT22;11047;47.904;8.110;2022-10-16T03:20:13;10.30;99.90
21772;DHT22;11047;47.904;8.110;2022-10-16T03:22:42;10.40;99.90
21772;DHT22;11047;47.904;8.110;2022-10-16T03:25:09;10.40;99.90
21772;DHT22;11047;47.904;8.110;2022-10-16T03:27:36;10.40;99.90
21772;DHT22;11047;47.904;8.110;2022-10-16T03:30:03;10.40;99.90
21772;DHT22;11047;47.904;8.110;2022-10-16T03:32:30;10.40;99.90
21772;DHT22;11047;47.904;8.110;2022-10-16T03:34:57;10.40;99.90
21772;DHT22;11047;47.904;8.110;2022-10-16T03:37:24;10.40;99.90
21772;DHT22;11047;47.904;8.110;2022-10-16T03:39:52;10.40;99.90
21772;DHT22;11047;47.904;8.110;2022-10-16T03:42:19;10.40;99.90
21772;DHT22;11047;47.904;8.110;2022-10-16T03:44:46;10.40;99.90
21772;DHT22;11047;47.904;8.110;2022-10-16T03:47:13;10.30;99.90
21772;DHT22;11047;47.904;8.110;2022-10-16T03:49:40;10.30;99.90
21772;DHT22;11047;47.904;8.110;2022-10-16T03:52:06;10.30;99.90
21772;DHT22;11047;47.904;8.110;2022-10-16T03:54:33;10.30;99.90
21772;DHT22;11047;47.904;8.110;2022-10-16T03:57:02;10.30;99.90
21772;DHT22;11047;47.904;8.110;2022-10-16T03:59:29;10.30;99.90
21772;DHT22;11047;47.904;8.110;2022-10-16T04:01:55;10.30;99.90
21772;DHT22;11047;47.904;8.110;2022-10-16T04:04:22;10.30;99.90
21772;DHT22;11047;47.904;8.110;2022-10-16T04:06:50;10.30;99.90
21772;DHT22;11047;47.904;8.110;2022-10-16T04:09:17;10.30;99.90
21772;DHT22;11047;47.904;8.110;2022-10-16T04:11:44;10.30;99.90
21772;DHT22;11047;47.904;8.110;2022-10-16T04:14:12;10.30;99.90
21772;DHT22;11047;47.904;8.110;2022-10-16T04:16:39;10.40;99.90
21772;DHT22;11047;47.904;8.110;2022-10-16T04:19:06;10.30;99.90
21772;DHT22;11047;47.904;8.110;2022-10-16T04:21:33;10.40;99.90
21772;DHT22;11047;47.904;8.110;2022-10-16T04:24:00;10.40;99.90
21772;DHT22;11047;47.904;8.110;2022-10-16T04:26:27;10.40;99.90
21772;DHT22;11047;47.904;8.110;2022-10-16T04:28:53;10.40;99.90
21772;DHT22;11047;47.904;8.110;2022-10-16T04:31:22;10.40;99.90
21772;DHT22;11047;47.904;8.110;2022-10-16T04:33:49;10.40;99.90
21772;DHT22;11047;47.904;8.110;2022-10-16T04:36:15;10.40;99.90
21772;DHT22;11047;47.904;8.110;2022-10-16T04:38:42;10.40;99.90
21772;DHT22;11047;47.904;8.110;2022-10-16T04:41:09;10.40;99.90
21772;DHT22;11047;47.904;8.110;2022-10-16T04:43:36;10.40;99.90
21772;DHT22;11047;47.904;8.110;2022-10-16T04:46:03;10.40;99.90
21772;DHT22;11047;47.904;8.110;2022-10-16T04:48:32;10.40;99.90
21772;DHT22;11047;47.904;8.110;2022-10-16T04:50:59;10.40;99.90
21772;DHT22;11047;47.904;8.110;2022-10-16T04:53:26;10.40;99.90
21772;DHT22;11047;47.904;8.110;2022-10-16T04:55:53;10.40;99.90
21772;DHT22;11047;47.904;8.110;2022-10-16T04:58:20;10.40;99.90
21772;DHT22;11047;47.904;8.110;2022-10-16T05:00:46;10.50;99.90
21772;DHT22;11047;47.904;8.110;2022-10-16T05:03:13;10.50;99.90
21772;DHT22;11047;47.904;8.110;2022-10-16T05:05:44;10.50;99.90
21772;DHT22;11047;47.904;8.110;2022-10-16T05:08:11;10.50;99.90
21772;DHT22;11047;47.904;8.110;2022-10-16T05:10:39;10.50;99.90
21772;DHT22;11047;47.904;8.110;2022-10-16T05:13:06;10.50;99.90
21772;DHT22;11047;47.904;8.110;2022-10-16T05:15:33;10.50;99.90
21772;DHT22;11047;47.904;8.110;2022-10-16T05:18:00;10.50;99.90
21772;DHT22;11047;47.904;8.110;2022-10-16T05:20:27;10.50;99.90
21772;DHT22;11047;47.904;8.110;2022-10-16T05:22:55;10.50;99.90
21772;DHT22;11047;47.904;8.110;2022-10-16T05:25:22;10.40;99.90
21772;DHT22;11047;47.904;8.110;2022-10-16T05:27:49;10.40;99.90
21772;DHT22;11047;47.904;8.110;2022-10-16T05:30:17;10.40;99.90
21772;DHT22;11047;47.904;8.110;2022-10-16T05:32:46;10.40;99.90
21772;DHT22;11047;47.904;8.110;2022-10-16T05:35:13;10.40;99.90
21772;DHT22;11047;47.904;8.110;2022-10-16T05:37:41;10.40;99.90
21772;DHT22;11047;47.904;8.110;2022-10-16T05:40:10;10.40;99.90
21772;DHT22;11047;47.904;8.110;2022-10-16T05:42:38;10.40;99.90
21772;DHT22;11047;47.904;8.110;2022-10-16T05:45:07;10.40;99.90
21772;DHT22;11047;47.904;8.110;2022-10-16T05:47:35;10.40;99.90
21772;DHT22;11047;47.904;8.110;2022-10-16T05:50:02;10.40;99.90
21772;DHT22;11047;47.904;8.110;2022-10-16T05:52:30;10.40;99.90
21772;DHT22;11047;47.904;8.110;2022-10-16T05:54:57;10.40;99.90
21772;DHT22;11047;47.904;8.110;2022-10-16T05:57:25;10.40;99.90
21772;DHT22;11047;47.904;8.110;2022-10-16T05:59:52;10.40;99.90
21772;DHT22;11047;47.904;8.110;2022-10-16T06:02:19;10.30;99.90
21772;DHT22;11047;47.904;8.110;2022-10-16T06:04:46;10.30;99.90
21772;DHT22;11047;47.904;8.110;2022-10-16T06:07:13;10.40;99.90
21772;DHT22;11047;47.904;8.110;2022-10-16T06:09:40;10.40;99.90
21772;DHT22;11047;47.904;8.110;2022-10-16T06:12:07;10.40;99.90
21772;DHT22;11047;47.904;8.110;2022-10-16T06:14:35;10.40;99.90
21772;DHT22;11047;47.904;8.110;2022-10-16T06:17:02;10.40;99.90
21772;DHT22;11047;47.904;8.110;2022-10-16T06:19:29;10.40;99.90
21772;DHT22;11047;47.904;8.110;2022-10-16T06:21:57;10.40;99.90
21772;DHT22;11047;47.904;8.110;2022-10-16T06:24:24;10.50;99.90
21772;DHT22;11047;47.904;8.110;2022-10-16T06:26:51;10.50;99.90
21772;DHT22;11047;47.904;8.110;2022-10-16T06:29:18;10.60;99.90
21772;DHT22;11047;47.904;8.110;2022-10-16T06:31:46;10.60;99.90
21772;DHT22;11047;47.904;8.110;2022-10-16T06:34:13;10.60;99.90
21772;DHT22;11047;47.904;8.110;2022-10-16T06:36:40;10.60;99.90
21772;DHT22;11047;47.904;8.110;2022-10-16T06:39:08;10.70;99.90
21772;DHT22;11047;47.904;8.110;2022-10-16T06:41:35;10.80;99.90
21772;DHT22;11047;47.904;8.110;2022-10-16T06:44:05;10.90;99.90
21772;DHT22;11047;47.904;8.110;2022-10-16T06:46:33;11.00;99.90
21772;DHT22;11047;47.904;8.110;2022-10-16T06:49:01;11.00;99.90
21772;DHT22;11047;47.904;8.110;2022-10-16T06:51:28;11.00;99.90
21772;DHT22;11047;47.904;8.110;2022-10-16T06:53:56;11.10;99.90
21772;DHT22;11047;47.904;8.110;2022-10-16T06:56:25;11.10;99.90
21772;DHT22;11047;47.904;8.110;2022-10-16T06:58:53;11.20;99.90
21772;DHT22;11047;47.904;8.110;2022-10-16T07:01:23;11.20;99.90
21772;DHT22;11047;47.904;8.110;2022-10-16T07:03:50;11.30;99.90
21772;DHT22;11047;47.904;8.110;2022-10-16T07:06:21;11.30;99.90
21772;DHT22;11047;47.904;8.110;2022-10-16T07:08:48;11.30;99.90
21772;DHT22;11047;47.904;8.110;2022-10-16T07:11:17;11.30;99.90
21772;DHT22;11047;47.904;8.110;2022-10-16T07:13:45;11.30;99.90
21772;DHT22;11047;47.904;8.110;2022-10-16T07:16:14;11.30;99.90
21772;DHT22;11047;47.904;8.110;2022-10-16T07:18:42;11.30;99.90
21772;DHT22;11047;47.904;8.110;2022-10-16T07:21:13;11.40;99.90
21772;DHT22;11047;47.904;8.110;2022-10-16T07:23:41;11.40;99.90
21772;DHT22;11047;47.904;8.110;2022-10-16T07:26:09;11.40;99.90
21772;DHT22;11047;47.904;8.110;2022-10-16T07:28:37;11.40;99.90
21772;DHT22;11047;47.904;8.110;2022-10-16T07:31:06;11.50;99.90
21772;DHT22;11047;47.904;8.110;2022-10-16T07:33:34;11.50;99.90
21772;DHT22;11047;47.904;8.110;2022-10-16T07:36:01;11.50;99.90
21772;DHT22;11047;47.904;8.110;2022-10-16T07:38:28;11.40;99.90
21772;DHT22;11047;47.904;8.110;2022-10-16T07:41:00;11.50;99.90
21772;DHT22;11047;47.904;8.110;2022-10-16T07:43:27;11.50;99.90
21772;DHT22;11047;47.904;8.110;2022-10-16T07:45:55;11.60;99.90
21772;DHT22;11047;47.904;8.110;2022-10-16T07:48:23;11.60;99.90
21772;DHT22;11047;47.904;8.110;2022-10-16T07:50:50;11.60;99.90
21772;DHT22;11047;47.904;8.110;2022-10-16T07:53:17;11.70;99.90
21772;DHT22;11047;47.904;8.110;2022-10-16T07:55:44;11.80;99.90
21772;DHT22;11047;47.904;8.110;2022-10-16T07:58:12;11.90;99.90
21772;DHT22;11047;47.904;8.110;2022-10-16T08:00:39;12.00;99.90
21772;DHT22;11047;47.904;8.110;2022-10-16T08:03:07;12.10;99.90
21772;DHT22;11047;47.904;8.110;2022-10-16T08:05:34;12.10;99.90
21772;DHT22;11047;47.904;8.110;2022-10-16T08:08:01;12.20;99.90
21772;DHT22;11047;47.904;8.110;2022-10-16T08:10:29;12.30;99.90
21772;DHT22;11047;47.904;8.110;2022-10-16T08:12:57;12.40;99.90
21772;DHT22;11047;47.904;8.110;2022-10-16T08:15:25;12.40;99.90
21772;DHT22;11047;47.904;8.110;2022-10-16T08:17:57;12.50;99.90
21772;DHT22;11047;47.904;8.110;2022-10-16T08:20:24;12.50;99.90
21772;DHT22;11047;47.904;8.110;2022-10-16T08:22:51;12.60;99.90
21772;DHT22;11047;47.904;8.110;2022-10-16T08:25:19;12.60;99.90
21772;DHT22;11047;47.904;8.110;2022-10-16T08:27:47;12.70;99.90
21772;DHT22;11047;47.904;8.110;2022-10-16T08:30:15;12.80;99.90
21772;DHT22;11047;47.904;8.110;2022-10-16T08:32:44;12.80;99.90
21772;DHT22;11047;47.904;8.110;2022-10-16T08:35:12;13.00;99.90
21772;DHT22;11047;47.904;8.110;2022-10-16T08:37:41;13.00;99.90
21772;DHT22;11047;47.904;8.110;2022-10-16T08:40:16;13.20;99.90
21772;DHT22;11047;47.904;8.110;2022-10-16T08:43:01;13.60;99.90
21772;DHT22;11047;47.904;8.110;2022-10-16T08:45:38;15.30;99.90
21772;DHT22;11047;47.904;8.110;2022-10-16T08:48:20;18.80;99.90
21772;DHT22;11047;47.904;8.110;2022-10-16T08:50:50;21.60;99.90
21772;DHT22;11047;47.904;8.110;2022-10-16T08:53:20;22.30;99.90
21772;DHT22;11047;47.904;8.110;2022-10-16T08:55:51;23.90;99.90
21772;DHT22;11047;47.904;8.110;2022-10-16T08:58:20;24.10;99.90
21772;DHT22;11047;47.904;8.110;2022-10-16T09:00:49;25.30;99.90
21772;DHT22;11047;47.904;8.110;2022-10-16T09:06:39;26.30;99.90
21772;DHT22;11047;47.904;8.110;2022-10-16T09:09:23;25.20;99.90
21772;DHT22;11047;47.904;8.110;2022-10-16T09:12:00;23.70;99.90
21772;DHT22;11047;47.904;8.110;2022-10-16T09:14:39;22.20;99.90
21772;DHT22;11047;47.904;8.110;2022-10-16T09:17:18;20.70;99.90
21772;DHT22;11047;47.904;8.110;2022-10-16T09:19:54;19.90;99.90
21772;DHT22;11047;47.904;8.110;2022-10-16T09:22:26;19.40;99.90
21772;DHT22;11047;47.904;8.110;2022-10-16T09:24:55;19.40;99.90
21772;DHT22;11047;47.904;8.110;2022-10-16T09:27:26;19.60;99.90
21772;DHT22;11047;47.904;8.110;2022-10-16T09:29:53;19.90;99.90
21772;DHT22;11047;47.904;8.110;2022-10-16T09:32:22;20.40;99.90
21772;DHT22;11047;47.904;8.110;2022-10-16T09:34:53;20.50;99.90
21772;DHT22;11047;47.904;8.110;2022-10-16T09:37:22;20.10;99.90
21772;DHT22;11047;47.904;8.110;2022-10-16T09:39:51;19.70;99.90
21772;DHT22;11047;47.904;8.110;2022-10-16T09:42:18;19.30;99.90
21772;DHT22;11047;47.904;8.110;2022-10-16T09:44:48;19.10;99.90
21772;DHT22;11047;47.904;8.110;2022-10-16T09:47:19;19.00;99.90
21772;DHT22;11047;47.904;8.110;2022-10-16T09:49:53;19.30;99.90
21772;DHT22;11047;47.904;8.110;2022-10-16T09:52:22;19.60;99.90
21772;DHT22;11047;47.904;8.110;2022-10-16T09:54:51;20.00;99.90
21772;DHT22;11047;47.904;8.110;2022-10-16T09:57:18;20.00;99.90
21772;DHT22;11047;47.904;8.110;2022-10-16T09:59:46;20.20;99.90
21772;DHT22;11047;47.904;8.110;2022-10-16T10:02:15;20.30;99.90
21772;DHT22;11047;47.904;8.110;2022-10-16T10:04:48;20.40;99.90
21772;DHT22;11047;47.904;8.110;2022-10-16T10:07:23;20.40;99.90
21772;DHT22;11047;47.904;8.110;2022-10-16T10:09:52;20.50;99.90
21772;DHT22;11047;47.904;8.110;2022-10-16T10:12:21;20.50;99.90
21772;DHT22;11047;47.904;8.110;2022-10-16T10:14:50;20.10;99.90
21772;DHT22;11047;47.904;8.110;2022-10-16T10:17:19;20.00;99.90
21772;DHT22;11047;47.904;8.110;2022-10-16T10:19:49;19.70;99.90
21772;DHT22;11047;47.904;8.110;2022-10-16T10:22:29;19.60;99.90
21772;DHT22;11047;47.904;8.110;2022-10-16T10:25:26;19.70;99.90
21772;DHT22;11047;47.904;8.110;2022-10-16T10:28:06;19.60;99.90
21772;DHT22;11047;47.904;8.110;2022-10-16T10:30:40;19.60;99.90
21772;DHT22;11047;47.904;8.110;2022-10-16T10:33:24;19.70;99.90
21772;DHT22;11047;47.904;8.110;2022-10-16T10:35:54;19.70;99.90
21772;DHT22;11047;47.904;8.110;2022-10-16T10:38:39;19.80;99.90
21772;DHT22;11047;47.904;8.110;2022-10-16T10:41:34;19.90;99.90
21772;DHT22;11047;47.904;8.110;2022-10-16T10:44:11;19.80;99.90
21772;DHT22;11047;47.904;8.110;2022-10-16T10:46:45;20.20;99.90
21772;DHT22;11047;47.904;8.110;2022-10-16T10:49:40;20.60;99.90
21772;DHT22;11047;47.904;8.110;2022-10-16T10:55:26;20.90;99.90
21772;DHT22;11047;47.904;8.110;2022-10-16T10:58:15;21.30;99.90
21772;DHT22;11047;47.904;8.110;2022-10-16T11:00:54;21.50;99.90
21772;DHT22;11047;47.904;8.110;2022-10-16T11:03:35;21.90;99.90
21772;DHT22;11047;47.904;8.110;2022-10-16T11:06:09;22.10;99.90
21772;DHT22;11047;47.904;8.110;2022-10-16T11:08:40;22.10;99.90
21772;DHT22;11047;47.904;8.110;2022-10-16T11:11:15;22.40;99.90
21772;DHT22;11047;47.904;8.110;2022-10-16T11:13:51;22.60;99.90
21772;DHT22;11047;47.904;8.110;2022-10-16T11:16:23;22.70;99.90
21772;DHT22;11047;47.904;8.110;2022-10-16T11:18:58;22.80;99.90
21772;DHT22;11047;47.904;8.110;2022-10-16T11:21:28;22.70;99.90
21772;DHT22;11047;47.904;8.110;2022-10-16T11:24:01;22.70;99.90
21772;DHT22;11047;47.904;8.110;2022-10-16T11:26:35;22.70;99.90
21772;DHT22;11047;47.904;8.110;2022-10-16T11:29:12;22.70;99.90
21772;DHT22;11047;47.904;8.110;2022-10-16T11:31:47;22.70;99.90
21772;DHT22;11047;47.904;8.110;2022-10-16T11:34:21;22.60;99.90
21772;DHT22;11047;47.904;8.110;2022-10-16T11:36:51;22.50;99.90
21772;DHT22;11047;47.904;8.110;2022-10-16T11:39:21;22.30;99.90
21772;DHT22;11047;47.904;8.110;2022-10-16T11:41:52;22.30;99.90
21772;DHT22;11047;47.904;8.110;2022-10-16T11:44:44;22.30;99.90
21772;DHT22;11047;47.904;8.110;2022-10-16T11:47:23;22.30;99.90
21772;DHT22;11047;47.904;8.110;2022-10-16T11:49:55;22.30;99.90
21772;DHT22;11047;47.904;8.110;2022-10-16T11:52:30;22.10;99.90
21772;DHT22;11047;47.904;8.110;2022-10-16T11:55:03;22.10;99.90
21772;DHT22;11047;47.904;8.110;2022-10-16T11:57:35;21.80;99.90
21772;DHT22;11047;47.904;8.110;2022-10-16T12:00:09;22.10;99.90
21772;DHT22;11047;47.904;8.110;2022-10-16T12:02:50;22.20;99.90
21772;DHT22;11047;47.904;8.110;2022-10-16T12:05:26;22.10;99.90
21772;DHT22;11047;47.904;8.110;2022-10-16T12:08:05;22.30;99.90
21772;DHT22;11047;47.904;8.110;2022-10-16T12:10:33;22.60;99.90
21772;DHT22;11047;47.904;8.110;2022-10-16T12:13:04;22.70;99.90
21772;DHT22;11047;47.904;8.110;2022-10-16T12:15:33;22.70;99.90
21772;DHT22;11047;47.904;8.110;2022-10-16T12:18:00;22.70;99.90
21772;DHT22;11047;47.904;8.110;2022-10-16T12:20:29;22.70;99.90
21772;DHT22;11047;47.904;8.110;2022-10-16T12:23:00;22.70;99.90
21772;DHT22;11047;47.904;8.110;2022-10-16T12:25:30;22.80;99.90
21772;DHT22;11047;47.904;8.110;2022-10-16T12:28:00;22.50;99.90
21772;DHT22;11047;47.904;8.110;2022-10-16T12:30:32;22.70;99.90
21772;DHT22;11047;47.904;8.110;2022-10-16T12:33:02;22.80;99.90
21772;DHT22;11047;47.904;8.110;2022-10-16T12:35:32;22.90;99.90
21772;DHT22;11047;47.904;8.110;2022-10-16T12:38:25;23.00;99.90
21772;DHT22;11047;47.904;8.110;2022-10-16T12:40:58;22.80;99.90
21772;DHT22;11047;47.904;8.110;2022-10-16T12:43:38;22.80;99.90
21772;DHT22;11047;47.904;8.110;2022-10-16T12:46:33;22.80;99.90
21772;DHT22;11047;47.904;8.110;2022-10-16T12:49:28;22.90;99.90
21772;DHT22;11047;47.904;8.110;2022-10-16T12:51:55;23.00;99.90
21772;DHT22;11047;47.904;8.110;2022-10-16T12:54:27;22.80;99.90
21772;DHT22;11047;47.904;8.110;2022-10-16T12:57:06;22.70;99.90
21772;DHT22;11047;47.904;8.110;2022-10-16T12:59:42;22.60;99.90
21772;DHT22;11047;47.904;8.110;2022-10-16T13:05:21;22.40;99.90
21772;DHT22;11047;47.904;8.110;2022-10-16T13:07:59;22.20;99.90
21772;DHT22;11047;47.904;8.110;2022-10-16T13:10:36;22.30;99.90
21772;DHT22;11047;47.904;8.110;2022-10-16T13:13:18;22.30;99.90
21772;DHT22;11047;47.904;8.110;2022-10-16T13:21:11;22.20;99.90
21772;DHT22;11047;47.904;8.110;2022-10-16T13:23:49;22.00;99.90
21772;DHT22;11047;47.904;8.110;2022-10-16T13:26:27;22.10;99.90
21772;DHT22;11047;47.904;8.110;2022-10-16T13:28:59;22.30;99.90
21772;DHT22;11047;47.904;8.110;2022-10-16T13:31:28;22.20;99.90
21772;DHT22;11047;47.904;8.110;2022-10-16T13:33:58;22.00;99.90
21772;DHT22;11047;47.904;8.110;2022-10-16T13:36:34;22.00;99.90
21772;DHT22;11047;47.904;8.110;2022-10-16T13:39:10;21.80;99.90
21772;DHT22;11047;47.904;8.110;2022-10-16T13:41:38;21.70;99.90
21772;DHT22;11047;47.904;8.110;2022-10-16T13:44:13;21.80;99.90
21772;DHT22;11047;47.904;8.110;2022-10-16T13:46:41;21.70;99.90
21772;DHT22;11047;47.904;8.110;2022-10-16T13:49:13;21.70;99.90
21772;DHT22;11047;47.904;8.110;2022-10-16T13:51:53;21.80;99.90
21772;DHT22;11047;47.904;8.110;2022-10-16T13:54:20;21.40;99.90
21772;DHT22;11047;47.904;8.110;2022-10-16T13:56:47;21.50;99.90
21772;DHT22;11047;47.904;8.110;2022-10-16T13:59:23;21.40;99.90
21772;DHT22;11047;47.904;8.110;2022-10-16T14:01:52;21.30;99.90
21772;DHT22;11047;47.904;8.110;2022-10-16T14:04:20;21.20;99.90
21772;DHT22;11047;47.904;8.110;2022-10-16T14:06:50;21.10;99.90
21772;DHT22;11047;47.904;8.110;2022-10-16T14:09:22;20.90;99.90
21772;DHT22;11047;47.904;8.110;2022-10-16T14:11:52;20.90;99.90
21772;DHT22;11047;47.904;8.110;2022-10-16T14:14:20;20.90;99.90
21772;DHT22;11047;47.904;8.110;2022-10-16T14:16:47;20.80;99.90
21772;DHT22;11047;47.904;8.110;2022-10-16T14:19:20;20.70;99.90
21772;DHT22;11047;47.904;8.110;2022-10-16T14:21:50;20.80;99.90
21772;DHT22;11047;47.904;8.110;2022-10-16T14:24:27;20.80;99.90
21772;DHT22;11047;47.904;8.110;2022-10-16T14:26:58;20.70;99.90
21772;DHT22;11047;47.904;8.110;2022-10-16T14:29:27;20.70;99.90
21772;DHT22;11047;47.904;8.110;2022-10-16T14:31:56;20.60;99.90
21772;DHT22;11047;47.904;8.110;2022-10-16T14:34:28;20.40;99.90
21772;DHT22;11047;47.904;8.110;2022-10-16T14:36:59;20.30;99.90
21772;DHT22;11047;47.904;8.110;2022-10-16T14:39:28;20.40;99.90
21772;DHT22;11047;47.904;8.110;2022-10-16T14:41:57;20.30;99.90
21772;DHT22;11047;47.904;8.110;2022-10-16T14:44:28;20.30;99.90
21772;DHT22;11047;47.904;8.110;2022-10-16T14:46:56;20.30;99.90
21772;DHT22;11047;47.904;8.110;2022-10-16T14:49:25;20.20;99.90
21772;DHT22;11047;47.904;8.110;2022-10-16T14:51:53;20.10;99.90
21772;DHT22;11047;47.904;8.110;2022-10-16T14:54:22;20.10;99.90
21772;DHT22;11047;47.904;8.110;2022-10-16T14:56:51;19.90;99.90
21772;DHT22;11047;47.904;8.110;2022-10-16T14:59:22;19.90;99.90
21772;DHT22;11047;47.904;8.110;2022-10-16T15:01:51;19.80;99.90
21772;DHT22;11047;47.904;8.110;2022-10-16T15:04:18;19.80;99.90
21772;DHT22;11047;47.904;8.110;2022-10-16T15:06:45;19.90;99.90
21772;DHT22;11047;47.904;8.110;2022-10-16T15:09:12;19.90;99.90
21772;DHT22;11047;47.904;8.110;2022-10-16T15:11:41;19.70;99.90
21772;DHT22;11047;47.904;8.110;2022-10-16T15:14:11;19.80;99.90
21772;DHT22;11047;47.904;8.110;2022-10-16T15:16:38;19.70;99.90
21772;DHT22;11047;47.904;8.110;2022-10-16T15:19:05;19.50;99.90
21772;DHT22;11047;47.904;8.110;2022-10-16T15:21:32;19.50;99.90
21772;DHT22;11047;47.904;8.110;2022-10-16T15:24:00;19.30;99.90
21772;DHT22;11047;47.904;8.110;2022-10-16T15:26:28;19.30;99.90
21772;DHT22;11047;47.904;8.110;2022-10-16T15:28:57;19.10;99.90
21772;DHT22;11047;47.904;8.110;2022-10-16T15:31:24;19.00;99.90
21772;DHT22;11047;47.904;8.110;2022-10-16T15:33:51;18.90;99.90
21772;DHT22;11047;47.904;8.110;2022-10-16T15:36:25;18.80;99.90
21772;DHT22;11047;47.904;8.110;2022-10-16T15:38:52;18.70;99.90
21772;DHT22;11047;47.904;8.110;2022-10-16T15:41:19;18.60;99.90
21772;DHT22;11047;47.904;8.110;2022-10-16T15:43:48;18.50;99.90
21772;DHT22;11047;47.904;8.110;2022-10-16T15:46:18;18.30;99.90
21772;DHT22;11047;47.904;8.110;2022-10-16T15:48:48;18.20;99.90
21772;DHT22;11047;47.904;8.110;2022-10-16T15:51:15;18.00;99.90
21772;DHT22;11047;47.904;8.110;2022-10-16T15:53:42;17.90;99.90
21772;DHT22;11047;47.904;8.110;2022-10-16T15:56:12;17.70;99.90
21772;DHT22;11047;47.904;8.110;2022-10-16T15:58:40;17.80;99.90
21772;DHT22;11047;47.904;8.110;2022-10-16T16:01:07;17.60;99.90
21772;DHT22;11047;47.904;8.110;2022-10-16T16:03:37;17.60;99.90